sensor_id;sensor_type;location;lat;lon;timestamp;P1;durP1;ratioP1;P2;durP2;ratioP2
14096;SDS011;7125;48.106;11.544;2022-12-15T00:01:37;31.27;;;21.20;;
14096;SDS011;7125;48.106;11.544;2022-12-15T00:04:21;42.23;;;27.40;;
14096;SDS011;7125;48.106;11.544;2022-12-15T00:07:06;35.70;;;24.77;;
14096;SDS011;7125;48.106;11.544;2022-12-15T00:09:50;35.07;;;23.10;;
14096;SDS011;7125;48.106;11.544;2022-12-15T00:12:34;37.27;;;26.47;;
14096;SDS011;7125;48.106;11.544;2022-12-15T00:15:19;32.00;;;24.23;;
14096;SDS011;7125;48.106;11.544;2022-12-15T00:18:05;35.60;;;24.97;;
14096;SDS011;7125;48.106;11.544;2022-12-15T00:20:49;36.63;;;25.40;;
14096;SDS011;7125;48.106;11.544;2022-12-15T00:23:33;34.03;;;25.67;;
14096;SDS011;7125;48.106;11.544;2022-12-15T00:26:17;33.20;;;24.50;;
14096;SDS011;7125;48.106;11.544;2022-12-15T00:29:02;37.50;;;23.80;;
14096;SDS011;7125;48.106;11.544;2022-12-15T00:31:46;38.67;;;28.33;;
14096;SDS011;7125;48.106;11.544;2022-12-15T00:34:32;30.70;;;23.47;;
14096;SDS011;7125;48.106;11.544;2022-12-15T00:37:16;36.67;;;26.07;;
14096;SDS011;7125;48.106;11.544;2022-12-15T00:40:01;35.70;;;24.80;;
14096;SDS011;7125;48.106;11.544;2022-12-15T00:42:29;34.03;;;25.93;;
14096;SDS011;7125;48.106;11.544;2022-12-15T00:44:56;39.17;;;28.30;;
14096;SDS011;7125;48.106;11.544;2022-12-15T00:47:23;41.23;;;27.80;;
14096;SDS011;7125;48.106;11.544;2022-12-15T00:49:51;35.97;;;28.03;;
14096;SDS011;7125;48.106;11.544;2022-12-15T00:52:35;30.93;;;24.20;;
14096;SDS011;7125;48.106;11.544;2022-12-15T00:55:19;30.87;;;23.43;;
14096;SDS011;7125;48.106;11.544;2022-12-15T00:58:04;40.27;;;27.37;;
14096;SDS011;7125;48.106;11.544;2022-12-15T01:00:48;41.33;;;28.30;;
14096;SDS011;7125;48.106;11.544;2022-12-15T01:03:32;42.17;;;30.13;;
14096;SDS011;7125;48.106;11.544;2022-12-15T01:06:18;38.50;;;29.47;;
14096;SDS011;7125;48.106;11.544;2022-12-15T01:09:04;32.33;;;24.97;;
14096;SDS011;7125;48.106;11.544;2022-12-15T01:11:49;36.87;;;27.33;;
14096;SDS011;7125;48.106;11.544;2022-12-15T01:14:34;37.17;;;27.53;;
14096;SDS011;7125;48.106;11.544;2022-12-15T01:17:18;38.20;;;27.73;;
14096;SDS011;7125;48.106;11.544;2022-12-15T01:20:03;42.80;;;31.63;;
14096;SDS011;7125;48.106;11.544;2022-12-15T01:22:43;39.50;;;30.07;;
14096;SDS011;7125;48.106;11.544;2022-12-15T01:25:11;41.43;;;31.87;;
14096;SDS011;7125;48.106;11.544;2022-12-15T01:27:39;39.33;;;29.30;;
14096;SDS011;7125;48.106;11.544;2022-12-15T01:30:06;41.27;;;29.57;;
14096;SDS011;7125;48.106;11.544;2022-12-15T01:32:35;45.27;;;30.27;;
14096;SDS011;7125;48.106;11.544;2022-12-15T01:35:02;41.13;;;29.97;;
14096;SDS011;7125;48.106;11.544;2022-12-15T01:37:33;39.07;;;29.13;;
14096;SDS011;7125;48.106;11.544;2022-12-15T01:40:01;36.50;;;27.37;;
14096;SDS011;7125;48.106;11.544;2022-12-15T01:42:46;38.00;;;26.43;;
14096;SDS011;7125;48.106;11.544;2022-12-15T01:48:17;33.30;;;25.63;;
14096;SDS011;7125;48.106;11.544;2022-12-15T01:50:50;36.87;;;27.03;;
14096;SDS011;7125;48.106;11.544;2022-12-15T01:53:23;37.90;;;28.73;;
14096;SDS011;7125;48.106;11.544;2022-12-15T01:55:52;37.87;;;27.23;;
14096;SDS011;7125;48.106;11.544;2022-12-15T01:58:19;44.73;;;29.03;;
14096;SDS011;7125;48.106;11.544;2022-12-15T02:00:46;46.53;;;29.17;;
14096;SDS011;7125;48.106;11.544;2022-12-15T02:03:13;44.47;;;29.57;;
14096;SDS011;7125;48.106;11.544;2022-12-15T02:05:40;41.73;;;30.00;;
14096;SDS011;7125;48.106;11.544;2022-12-15T02:08:07;41.30;;;30.80;;
14096;SDS011;7125;48.106;11.544;2022-12-15T02:10:39;35.53;;;27.60;;
14096;SDS011;7125;48.106;11.544;2022-12-15T02:13:18;35.53;;;28.10;;
14096;SDS011;7125;48.106;11.544;2022-12-15T02:15:54;40.87;;;29.67;;
14096;SDS011;7125;48.106;11.544;2022-12-15T02:18:27;41.17;;;27.33;;
14096;SDS011;7125;48.106;11.544;2022-12-15T02:21:00;35.67;;;27.23;;
14096;SDS011;7125;48.106;11.544;2022-12-15T02:23:44;40.17;;;28.13;;
14096;SDS011;7125;48.106;11.544;2022-12-15T02:26:44;37.87;;;27.20;;
14096;SDS011;7125;48.106;11.544;2022-12-15T02:29:49;42.83;;;29.90;;
14096;SDS011;7125;48.106;11.544;2022-12-15T02:32:49;45.77;;;28.93;;
14096;SDS011;7125;48.106;11.544;2022-12-15T02:35:40;44.50;;;30.97;;
14096;SDS011;7125;48.106;11.544;2022-12-15T02:38:13;40.27;;;27.87;;
14096;SDS011;7125;48.106;11.544;2022-12-15T02:40:39;42.70;;;30.50;;
14096;SDS011;7125;48.106;11.544;2022-12-15T02:43:07;39.13;;;28.83;;
14096;SDS011;7125;48.106;11.544;2022-12-15T02:45:38;35.40;;;27.47;;
14096;SDS011;7125;48.106;11.544;2022-12-15T02:48:19;41.37;;;28.47;;
14096;SDS011;7125;48.106;11.544;2022-12-15T02:50:58;36.27;;;27.43;;
14096;SDS011;7125;48.106;11.544;2022-12-15T02:53:40;44.03;;;27.33;;
14096;SDS011;7125;48.106;11.544;2022-12-15T02:56:29;39.00;;;27.50;;
14096;SDS011;7125;48.106;11.544;2022-12-15T02:59:05;36.20;;;25.10;;
14096;SDS011;7125;48.106;11.544;2022-12-15T03:01:36;36.13;;;26.47;;
14096;SDS011;7125;48.106;11.544;2022-12-15T03:04:11;34.40;;;26.20;;
14096;SDS011;7125;48.106;11.544;2022-12-15T03:06:38;34.03;;;23.80;;
14096;SDS011;7125;48.106;11.544;2022-12-15T03:09:05;34.40;;;25.47;;
14096;SDS011;7125;48.106;11.544;2022-12-15T03:11:34;32.97;;;23.97;;
14096;SDS011;7125;48.106;11.544;2022-12-15T03:14:02;33.30;;;26.37;;
14096;SDS011;7125;48.106;11.544;2022-12-15T03:16:30;30.57;;;22.57;;
14096;SDS011;7125;48.106;11.544;2022-12-15T03:18:57;34.17;;;24.60;;
14096;SDS011;7125;48.106;11.544;2022-12-15T03:21:26;32.97;;;25.13;;
14096;SDS011;7125;48.106;11.544;2022-12-15T03:23:53;34.70;;;26.23;;
14096;SDS011;7125;48.106;11.544;2022-12-15T03:26:20;36.80;;;27.33;;
14096;SDS011;7125;48.106;11.544;2022-12-15T03:28:47;35.93;;;26.13;;
14096;SDS011;7125;48.106;11.544;2022-12-15T03:31:15;36.93;;;28.40;;
14096;SDS011;7125;48.106;11.544;2022-12-15T03:33:42;37.80;;;26.50;;
14096;SDS011;7125;48.106;11.544;2022-12-15T03:36:09;36.57;;;27.47;;
14096;SDS011;7125;48.106;11.544;2022-12-15T03:38:37;34.30;;;25.70;;
14096;SDS011;7125;48.106;11.544;2022-12-15T03:41:04;36.33;;;27.20;;
14096;SDS011;7125;48.106;11.544;2022-12-15T03:43:31;39.17;;;27.10;;
14096;SDS011;7125;48.106;11.544;2022-12-15T03:45:58;41.37;;;28.10;;
14096;SDS011;7125;48.106;11.544;2022-12-15T03:51:01;36.17;;;26.00;;
14096;SDS011;7125;48.106;11.544;2022-12-15T03:53:28;37.27;;;27.30;;
14096;SDS011;7125;48.106;11.544;2022-12-15T03:55:57;39.50;;;27.50;;
14096;SDS011;7125;48.106;11.544;2022-12-15T03:58:24;36.73;;;27.33;;
14096;SDS011;7125;48.106;11.544;2022-12-15T04:00:50;36.10;;;26.77;;
14096;SDS011;7125;48.106;11.544;2022-12-15T04:03:17;36.37;;;25.43;;
14096;SDS011;7125;48.106;11.544;2022-12-15T04:05:45;38.10;;;26.27;;
14096;SDS011;7125;48.106;11.544;2022-12-15T04:08:12;34.10;;;24.40;;
14096;SDS011;7125;48.106;11.544;2022-12-15T04:10:39;38.47;;;26.90;;
14096;SDS011;7125;48.106;11.544;2022-12-15T04:13:09;39.20;;;27.90;;
14096;SDS011;7125;48.106;11.544;2022-12-15T04:15:37;37.63;;;25.30;;
14096;SDS011;7125;48.106;11.544;2022-12-15T04:18:06;42.63;;;28.07;;
14096;SDS011;7125;48.106;11.544;2022-12-15T04:20:35;37.37;;;26.80;;
14096;SDS011;7125;48.106;11.544;2022-12-15T04:23:02;39.33;;;28.13;;
14096;SDS011;7125;48.106;11.544;2022-12-15T04:25:31;42.40;;;28.13;;
14096;SDS011;7125;48.106;11.544;2022-12-15T04:33:34;42.73;;;29.00;;
14096;SDS011;7125;48.106;11.544;2022-12-15T04:36:20;36.80;;;28.17;;
14096;SDS011;7125;48.106;11.544;2022-12-15T04:39:05;39.07;;;28.87;;
14096;SDS011;7125;48.106;11.544;2022-12-15T04:41:50;39.07;;;28.50;;
14096;SDS011;7125;48.106;11.544;2022-12-15T04:44:35;43.40;;;27.27;;
14096;SDS011;7125;48.106;11.544;2022-12-15T04:47:20;37.90;;;25.80;;
14096;SDS011;7125;48.106;11.544;2022-12-15T04:50:07;40.77;;;28.37;;
14096;SDS011;7125;48.106;11.544;2022-12-15T04:52:52;39.13;;;28.53;;
14096;SDS011;7125;48.106;11.544;2022-12-15T04:55:36;40.87;;;27.63;;
14096;SDS011;7125;48.106;11.544;2022-12-15T04:58:21;41.07;;;27.90;;
14096;SDS011;7125;48.106;11.544;2022-12-15T05:01:06;36.93;;;27.17;;
14096;SDS011;7125;48.106;11.544;2022-12-15T05:03:51;39.67;;;28.67;;
14096;SDS011;7125;48.106;11.544;2022-12-15T05:06:37;39.67;;;29.33;;
14096;SDS011;7125;48.106;11.544;2022-12-15T05:09:14;37.53;;;27.90;;
14096;SDS011;7125;48.106;11.544;2022-12-15T05:25:10;40.80;;;28.90;;
14096;SDS011;7125;48.106;11.544;2022-12-15T05:27:55;42.83;;;28.80;;
14096;SDS011;7125;48.106;11.544;2022-12-15T05:30:40;46.23;;;29.57;;
14096;SDS011;7125;48.106;11.544;2022-12-15T05:33:24;42.63;;;30.03;;
14096;SDS011;7125;48.106;11.544;2022-12-15T05:35:54;42.80;;;28.53;;
14096;SDS011;7125;48.106;11.544;2022-12-15T05:38:22;36.17;;;26.50;;
14096;SDS011;7125;48.106;11.544;2022-12-15T05:40:50;39.23;;;29.90;;
14096;SDS011;7125;48.106;11.544;2022-12-15T05:43:18;37.67;;;27.83;;
14096;SDS011;7125;48.106;11.544;2022-12-15T05:45:45;41.10;;;29.47;;
14096;SDS011;7125;48.106;11.544;2022-12-15T05:48:13;39.30;;;28.40;;
14096;SDS011;7125;48.106;11.544;2022-12-15T05:50:41;47.93;;;31.03;;
14096;SDS011;7125;48.106;11.544;2022-12-15T06:19:00;40.23;;;28.07;;
14096;SDS011;7125;48.106;11.544;2022-12-15T06:29:36;40.90;;;28.83;;
14096;SDS011;7125;48.106;11.544;2022-12-15T06:42:54;40.27;;;29.57;;
14096;SDS011;7125;48.106;11.544;2022-12-15T06:53:20;44.97;;;31.93;;
14096;SDS011;7125;48.106;11.544;2022-12-15T06:55:49;45.23;;;32.37;;
14096;SDS011;7125;48.106;11.544;2022-12-15T06:58:17;39.20;;;29.43;;
14096;SDS011;7125;48.106;11.544;2022-12-15T07:00:45;45.47;;;30.37;;
14096;SDS011;7125;48.106;11.544;2022-12-15T07:03:12;47.53;;;33.63;;
14096;SDS011;7125;48.106;11.544;2022-12-15T07:05:40;38.33;;;28.17;;
14096;SDS011;7125;48.106;11.544;2022-12-15T07:08:08;39.93;;;29.53;;
14096;SDS011;7125;48.106;11.544;2022-12-15T07:10:37;36.97;;;28.70;;
14096;SDS011;7125;48.106;11.544;2022-12-15T07:13:05;42.17;;;31.17;;
14096;SDS011;7125;48.106;11.544;2022-12-15T07:15:35;39.77;;;28.53;;
14096;SDS011;7125;48.106;11.544;2022-12-15T07:20:45;41.77;;;30.23;;
14096;SDS011;7125;48.106;11.544;2022-12-15T07:23:12;43.47;;;28.83;;
14096;SDS011;7125;48.106;11.544;2022-12-15T07:31:01;46.27;;;31.43;;
14096;SDS011;7125;48.106;11.544;2022-12-15T07:33:30;45.63;;;30.70;;
14096;SDS011;7125;48.106;11.544;2022-12-15T07:43:51;44.27;;;31.00;;
14096;SDS011;7125;48.106;11.544;2022-12-15T07:46:19;50.90;;;32.20;;
14096;SDS011;7125;48.106;11.544;2022-12-15T07:57:02;46.97;;;32.73;;
14096;SDS011;7125;48.106;11.544;2022-12-15T08:05:12;46.67;;;31.67;;
14096;SDS011;7125;48.106;11.544;2022-12-15T08:10:15;46.70;;;32.37;;
14096;SDS011;7125;48.106;11.544;2022-12-15T08:17:59;45.93;;;32.20;;
14096;SDS011;7125;48.106;11.544;2022-12-15T08:53:22;48.07;;;34.27;;
14096;SDS011;7125;48.106;11.544;2022-12-15T08:58:25;46.70;;;34.30;;
14096;SDS011;7125;48.106;11.544;2022-12-15T09:00:58;49.30;;;35.57;;
14096;SDS011;7125;48.106;11.544;2022-12-15T10:02:49;46.27;;;34.37;;
14096;SDS011;7125;48.106;11.544;2022-12-15T10:05:36;47.07;;;32.03;;
14096;SDS011;7125;48.106;11.544;2022-12-15T10:08:11;47.90;;;33.57;;
14096;SDS011;7125;48.106;11.544;2022-12-15T10:10:40;49.47;;;32.90;;
14096;SDS011;7125;48.106;11.544;2022-12-15T10:13:13;44.30;;;32.97;;
14096;SDS011;7125;48.106;11.544;2022-12-15T10:15:49;49.33;;;33.80;;
14096;SDS011;7125;48.106;11.544;2022-12-15T10:18:24;47.40;;;35.20;;
14096;SDS011;7125;48.106;11.544;2022-12-15T10:20:57;50.53;;;33.00;;
14096;SDS011;7125;48.106;11.544;2022-12-15T10:23:26;50.87;;;33.67;;
14096;SDS011;7125;48.106;11.544;2022-12-15T10:25:55;43.53;;;31.40;;
14096;SDS011;7125;48.106;11.544;2022-12-15T10:31:17;46.23;;;32.27;;
14096;SDS011;7125;48.106;11.544;2022-12-15T10:33:52;48.97;;;35.47;;
14096;SDS011;7125;48.106;11.544;2022-12-15T10:55:27;53.23;;;32.30;;
14096;SDS011;7125;48.106;11.544;2022-12-15T10:58:02;49.77;;;32.73;;
14096;SDS011;7125;48.106;11.544;2022-12-15T11:00:39;48.13;;;33.40;;
14096;SDS011;7125;48.106;11.544;2022-12-15T11:03:11;48.03;;;34.53;;
14096;SDS011;7125;48.106;11.544;2022-12-15T11:05:49;53.53;;;34.40;;
14096;SDS011;7125;48.106;11.544;2022-12-15T11:08:17;45.87;;;32.10;;
14096;SDS011;7125;48.106;11.544;2022-12-15T11:10:51;41.87;;;32.30;;
14096;SDS011;7125;48.106;11.544;2022-12-15T11:13:37;44.70;;;31.10;;
14096;SDS011;7125;48.106;11.544;2022-12-15T11:16:14;43.73;;;32.83;;
14096;SDS011;7125;48.106;11.544;2022-12-15T11:18:43;43.47;;;30.17;;
14096;SDS011;7125;48.106;11.544;2022-12-15T11:21:16;45.57;;;32.80;;
14096;SDS011;7125;48.106;11.544;2022-12-15T11:23:52;52.63;;;32.37;;
14096;SDS011;7125;48.106;11.544;2022-12-15T11:29:00;42.73;;;31.87;;
14096;SDS011;7125;48.106;11.544;2022-12-15T11:31:36;44.17;;;32.17;;
14096;SDS011;7125;48.106;11.544;2022-12-15T11:44:47;46.10;;;33.47;;
14096;SDS011;7125;48.106;11.544;2022-12-15T11:55:40;45.30;;;30.87;;
14096;SDS011;7125;48.106;11.544;2022-12-15T12:00:53;45.77;;;31.63;;
14096;SDS011;7125;48.106;11.544;2022-12-15T12:03:30;53.30;;;33.03;;
14096;SDS011;7125;48.106;11.544;2022-12-15T12:06:08;43.60;;;32.80;;
14096;SDS011;7125;48.106;11.544;2022-12-15T12:08:56;51.40;;;34.57;;
14096;SDS011;7125;48.106;11.544;2022-12-15T12:11:39;49.93;;;34.00;;
14096;SDS011;7125;48.106;11.544;2022-12-15T12:14:12;44.80;;;31.63;;
14096;SDS011;7125;48.106;11.544;2022-12-15T12:22:02;47.00;;;31.80;;
14096;SDS011;7125;48.106;11.544;2022-12-15T12:24:35;49.97;;;33.87;;
14096;SDS011;7125;48.106;11.544;2022-12-15T12:27:08;51.00;;;34.53;;
14096;SDS011;7125;48.106;11.544;2022-12-15T12:32:15;47.10;;;33.50;;
14096;SDS011;7125;48.106;11.544;2022-12-15T12:34:52;46.27;;;31.43;;
14096;SDS011;7125;48.106;11.544;2022-12-15T12:37:33;44.07;;;32.00;;
14096;SDS011;7125;48.106;11.544;2022-12-15T12:50:41;54.00;;;34.47;;
14096;SDS011;7125;48.106;11.544;2022-12-15T12:53:22;60.07;;;37.87;;
14096;SDS011;7125;48.106;11.544;2022-12-15T12:55:52;52.93;;;37.13;;
14096;SDS011;7125;48.106;11.544;2022-12-15T12:58:29;58.97;;;35.43;;
14096;SDS011;7125;48.106;11.544;2022-12-15T13:01:05;49.40;;;34.77;;
14096;SDS011;7125;48.106;11.544;2022-12-15T13:03:44;54.00;;;35.57;;
14096;SDS011;7125;48.106;11.544;2022-12-15T13:09:35;51.77;;;35.87;;
14096;SDS011;7125;48.106;11.544;2022-12-15T13:12:04;55.00;;;35.03;;
14096;SDS011;7125;48.106;11.544;2022-12-15T13:15:07;48.77;;;33.07;;
14096;SDS011;7125;48.106;11.544;2022-12-15T13:17:39;48.10;;;35.27;;
14096;SDS011;7125;48.106;11.544;2022-12-15T13:20:17;52.03;;;36.33;;
14096;SDS011;7125;48.106;11.544;2022-12-15T13:22:49;53.77;;;38.53;;
14096;SDS011;7125;48.106;11.544;2022-12-15T13:25:32;47.10;;;35.37;;
14096;SDS011;7125;48.106;11.544;2022-12-15T13:28:02;58.87;;;37.83;;
14096;SDS011;7125;48.106;11.544;2022-12-15T13:36:50;50.43;;;36.90;;
14096;SDS011;7125;48.106;11.544;2022-12-15T13:39:33;50.93;;;36.80;;
14096;SDS011;7125;48.106;11.544;2022-12-15T13:42:26;51.00;;;35.37;;
14096;SDS011;7125;48.106;11.544;2022-12-15T13:45:16;49.33;;;33.67;;
14096;SDS011;7125;48.106;11.544;2022-12-15T13:48:11;57.67;;;35.20;;
14096;SDS011;7125;48.106;11.544;2022-12-15T13:50:46;49.73;;;35.70;;
14096;SDS011;7125;48.106;11.544;2022-12-15T13:53:19;53.90;;;34.20;;
14096;SDS011;7125;48.106;11.544;2022-12-15T13:55:54;49.97;;;34.73;;
14096;SDS011;7125;48.106;11.544;2022-12-15T13:58:27;50.53;;;36.87;;
14096;SDS011;7125;48.106;11.544;2022-12-15T14:00:59;50.70;;;32.43;;
14096;SDS011;7125;48.106;11.544;2022-12-15T14:03:27;53.80;;;36.60;;
14096;SDS011;7125;48.106;11.544;2022-12-15T14:05:55;49.13;;;34.27;;
14096;SDS011;7125;48.106;11.544;2022-12-15T14:08:24;51.97;;;36.47;;
14096;SDS011;7125;48.106;11.544;2022-12-15T14:10:56;52.60;;;32.53;;
14096;SDS011;7125;48.106;11.544;2022-12-15T14:13:26;49.87;;;34.17;;
14096;SDS011;7125;48.106;11.544;2022-12-15T14:15:55;54.40;;;38.80;;
14096;SDS011;7125;48.106;11.544;2022-12-15T14:18:27;53.57;;;35.13;;
14096;SDS011;7125;48.106;11.544;2022-12-15T14:20:56;52.57;;;34.40;;
14096;SDS011;7125;48.106;11.544;2022-12-15T14:23:25;52.03;;;36.97;;
14096;SDS011;7125;48.106;11.544;2022-12-15T14:25:53;50.10;;;34.87;;
14096;SDS011;7125;48.106;11.544;2022-12-15T14:28:27;47.93;;;33.33;;
14096;SDS011;7125;48.106;11.544;2022-12-15T14:30:56;57.80;;;36.50;;
14096;SDS011;7125;48.106;11.544;2022-12-15T14:33:26;47.00;;;34.33;;
14096;SDS011;7125;48.106;11.544;2022-12-15T14:35:54;56.67;;;36.30;;
14096;SDS011;7125;48.106;11.544;2022-12-15T14:38:23;48.50;;;33.93;;
14096;SDS011;7125;48.106;11.544;2022-12-15T14:40:59;49.63;;;34.60;;
14096;SDS011;7125;48.106;11.544;2022-12-15T14:43:30;51.43;;;35.40;;
14096;SDS011;7125;48.106;11.544;2022-12-15T14:46:06;51.93;;;33.87;;
14096;SDS011;7125;48.106;11.544;2022-12-15T14:48:36;50.67;;;35.67;;
14096;SDS011;7125;48.106;11.544;2022-12-15T14:51:06;52.33;;;33.93;;
14096;SDS011;7125;48.106;11.544;2022-12-15T14:53:35;50.33;;;33.30;;
14096;SDS011;7125;48.106;11.544;2022-12-15T14:56:13;52.50;;;36.80;;
14096;SDS011;7125;48.106;11.544;2022-12-15T14:58:52;54.77;;;35.97;;
14096;SDS011;7125;48.106;11.544;2022-12-15T15:01:22;58.97;;;37.20;;
14096;SDS011;7125;48.106;11.544;2022-12-15T15:03:57;50.37;;;34.80;;
14096;SDS011;7125;48.106;11.544;2022-12-15T15:06:30;52.47;;;32.90;;
14096;SDS011;7125;48.106;11.544;2022-12-15T15:09:10;55.80;;;35.23;;
14096;SDS011;7125;48.106;11.544;2022-12-15T15:11:51;52.13;;;35.97;;
14096;SDS011;7125;48.106;11.544;2022-12-15T15:14:21;51.17;;;35.00;;
14096;SDS011;7125;48.106;11.544;2022-12-15T15:17:00;50.50;;;35.90;;
14096;SDS011;7125;48.106;11.544;2022-12-15T15:19:31;48.13;;;33.50;;
14096;SDS011;7125;48.106;11.544;2022-12-15T15:21:59;52.83;;;33.40;;
14096;SDS011;7125;48.106;11.544;2022-12-15T15:24:30;50.23;;;34.40;;
14096;SDS011;7125;48.106;11.544;2022-12-15T15:29:51;54.47;;;35.43;;
14096;SDS011;7125;48.106;11.544;2022-12-15T15:32:31;50.40;;;32.33;;
14096;SDS011;7125;48.106;11.544;2022-12-15T15:35:14;53.93;;;35.40;;
14096;SDS011;7125;48.106;11.544;2022-12-15T15:37:41;45.47;;;32.37;;
14096;SDS011;7125;48.106;11.544;2022-12-15T15:40:09;53.87;;;34.20;;
14096;SDS011;7125;48.106;11.544;2022-12-15T15:42:41;50.37;;;34.10;;
14096;SDS011;7125;48.106;11.544;2022-12-15T15:45:09;51.23;;;35.73;;
14096;SDS011;7125;48.106;11.544;2022-12-15T15:47:39;47.83;;;33.80;;
14096;SDS011;7125;48.106;11.544;2022-12-15T15:50:10;52.77;;;34.40;;
14096;SDS011;7125;48.106;11.544;2022-12-15T15:52:40;55.13;;;34.37;;
14096;SDS011;7125;48.106;11.544;2022-12-15T15:55:11;51.43;;;34.83;;
14096;SDS011;7125;48.106;11.544;2022-12-15T15:57:41;49.53;;;33.77;;
14096;SDS011;7125;48.106;11.544;2022-12-15T16:00:13;52.10;;;36.37;;
14096;SDS011;7125;48.106;11.544;2022-12-15T16:02:42;44.07;;;31.57;;
14096;SDS011;7125;48.106;11.544;2022-12-15T16:05:09;57.87;;;36.13;;
14096;SDS011;7125;48.106;11.544;2022-12-15T16:07:36;54.63;;;36.00;;
14096;SDS011;7125;48.106;11.544;2022-12-15T16:10:05;53.13;;;39.13;;
14096;SDS011;7125;48.106;11.544;2022-12-15T16:12:39;57.83;;;35.87;;
14096;SDS011;7125;48.106;11.544;2022-12-15T16:15:14;52.80;;;35.63;;
14096;SDS011;7125;48.106;11.544;2022-12-15T16:17:44;57.27;;;36.73;;
14096;SDS011;7125;48.106;11.544;2022-12-15T16:20:12;55.90;;;36.13;;
14096;SDS011;7125;48.106;11.544;2022-12-15T16:22:41;58.10;;;35.87;;
14096;SDS011;7125;48.106;11.544;2022-12-15T16:25:11;62.07;;;37.40;;
14096;SDS011;7125;48.106;11.544;2022-12-15T16:27:42;60.53;;;39.00;;
14096;SDS011;7125;48.106;11.544;2022-12-15T16:30:13;57.73;;;39.90;;
14096;SDS011;7125;48.106;11.544;2022-12-15T16:32:42;54.70;;;37.57;;
14096;SDS011;7125;48.106;11.544;2022-12-15T16:35:10;57.17;;;34.90;;
14096;SDS011;7125;48.106;11.544;2022-12-15T16:37:37;60.17;;;38.90;;
14096;SDS011;7125;48.106;11.544;2022-12-15T16:40:17;57.13;;;37.17;;
14096;SDS011;7125;48.106;11.544;2022-12-15T16:42:49;59.20;;;36.80;;
14096;SDS011;7125;48.106;11.544;2022-12-15T16:45:19;56.47;;;34.63;;
14096;SDS011;7125;48.106;11.544;2022-12-15T16:47:48;53.30;;;36.50;;
14096;SDS011;7125;48.106;11.544;2022-12-15T16:50:16;62.83;;;40.17;;
14096;SDS011;7125;48.106;11.544;2022-12-15T16:52:46;57.37;;;38.50;;
14096;SDS011;7125;48.106;11.544;2022-12-15T16:55:17;65.47;;;39.27;;
14096;SDS011;7125;48.106;11.544;2022-12-15T16:57:47;56.87;;;35.67;;
14096;SDS011;7125;48.106;11.544;2022-12-15T17:00:16;59.23;;;38.80;;
14096;SDS011;7125;48.106;11.544;2022-12-15T17:02:46;66.10;;;39.80;;
14096;SDS011;7125;48.106;11.544;2022-12-15T17:05:13;65.30;;;41.63;;
14096;SDS011;7125;48.106;11.544;2022-12-15T17:07:41;62.10;;;38.30;;
14096;SDS011;7125;48.106;11.544;2022-12-15T17:10:15;65.33;;;38.97;;
14096;SDS011;7125;48.106;11.544;2022-12-15T17:12:43;62.83;;;40.07;;
14096;SDS011;7125;48.106;11.544;2022-12-15T17:15:16;59.93;;;40.13;;
14096;SDS011;7125;48.106;11.544;2022-12-15T17:17:44;66.73;;;39.33;;
14096;SDS011;7125;48.106;11.544;2022-12-15T17:20:15;60.90;;;37.40;;
14096;SDS011;7125;48.106;11.544;2022-12-15T17:22:44;65.13;;;39.60;;
14096;SDS011;7125;48.106;11.544;2022-12-15T17:25:14;60.60;;;36.80;;
14096;SDS011;7125;48.106;11.544;2022-12-15T17:27:42;74.37;;;40.33;;
14096;SDS011;7125;48.106;11.544;2022-12-15T17:30:11;63.33;;;39.63;;
14096;SDS011;7125;48.106;11.544;2022-12-15T17:32:42;59.73;;;36.90;;
14096;SDS011;7125;48.106;11.544;2022-12-15T17:35:10;58.90;;;36.83;;
14096;SDS011;7125;48.106;11.544;2022-12-15T17:37:37;61.33;;;37.90;;
14096;SDS011;7125;48.106;11.544;2022-12-15T17:40:12;57.90;;;34.60;;
14096;SDS011;7125;48.106;11.544;2022-12-15T17:42:43;62.83;;;36.47;;
14096;SDS011;7125;48.106;11.544;2022-12-15T17:45:13;61.40;;;38.37;;
14096;SDS011;7125;48.106;11.544;2022-12-15T17:47:44;58.67;;;38.17;;
14096;SDS011;7125;48.106;11.544;2022-12-15T17:50:11;63.23;;;38.40;;
14096;SDS011;7125;48.106;11.544;2022-12-15T17:52:38;54.17;;;34.07;;
14096;SDS011;7125;48.106;11.544;2022-12-15T17:55:14;56.37;;;36.97;;
14096;SDS011;7125;48.106;11.544;2022-12-15T17:57:44;60.80;;;37.57;;
14096;SDS011;7125;48.106;11.544;2022-12-15T18:00:16;59.00;;;36.50;;
14096;SDS011;7125;48.106;11.544;2022-12-15T18:02:46;59.77;;;36.03;;
14096;SDS011;7125;48.106;11.544;2022-12-15T18:05:15;58.57;;;36.37;;
14096;SDS011;7125;48.106;11.544;2022-12-15T18:07:43;66.57;;;38.67;;
14096;SDS011;7125;48.106;11.544;2022-12-15T18:10:23;54.23;;;37.47;;
14096;SDS011;7125;48.106;11.544;2022-12-15T18:12:54;67.93;;;38.03;;
14096;SDS011;7125;48.106;11.544;2022-12-15T18:15:23;63.93;;;38.80;;
14096;SDS011;7125;48.106;11.544;2022-12-15T18:17:53;60.87;;;38.23;;
14096;SDS011;7125;48.106;11.544;2022-12-15T18:20:20;63.03;;;36.80;;
14096;SDS011;7125;48.106;11.544;2022-12-15T18:22:48;63.43;;;36.27;;
14096;SDS011;7125;48.106;11.544;2022-12-15T18:25:17;66.23;;;37.97;;
14096;SDS011;7125;48.106;11.544;2022-12-15T18:27:46;60.20;;;36.50;;
14096;SDS011;7125;48.106;11.544;2022-12-15T18:30:16;67.40;;;38.53;;
14096;SDS011;7125;48.106;11.544;2022-12-15T18:32:45;60.13;;;35.70;;
14096;SDS011;7125;48.106;11.544;2022-12-15T18:35:17;68.10;;;37.43;;
14096;SDS011;7125;48.106;11.544;2022-12-15T18:37:48;65.37;;;37.57;;
14096;SDS011;7125;48.106;11.544;2022-12-15T18:40:17;66.93;;;38.00;;
14096;SDS011;7125;48.106;11.544;2022-12-15T18:42:46;69.73;;;39.33;;
14096;SDS011;7125;48.106;11.544;2022-12-15T18:45:18;72.63;;;39.90;;
14096;SDS011;7125;48.106;11.544;2022-12-15T18:47:47;75.07;;;39.33;;
14096;SDS011;7125;48.106;11.544;2022-12-15T18:50:19;67.27;;;38.43;;
14096;SDS011;7125;48.106;11.544;2022-12-15T18:52:54;65.13;;;36.67;;
14096;SDS011;7125;48.106;11.544;2022-12-15T18:55:23;76.03;;;41.23;;
14096;SDS011;7125;48.106;11.544;2022-12-15T18:57:52;70.40;;;40.40;;
14096;SDS011;7125;48.106;11.544;2022-12-15T19:00:20;58.97;;;34.80;;
14096;SDS011;7125;48.106;11.544;2022-12-15T19:02:50;72.50;;;40.70;;
14096;SDS011;7125;48.106;11.544;2022-12-15T19:05:20;82.73;;;42.43;;
14096;SDS011;7125;48.106;11.544;2022-12-15T19:08:08;72.03;;;40.13;;
14096;SDS011;7125;48.106;11.544;2022-12-15T19:10:39;72.57;;;41.60;;
14096;SDS011;7125;48.106;11.544;2022-12-15T19:13:10;68.40;;;39.40;;
14096;SDS011;7125;48.106;11.544;2022-12-15T19:15:38;66.17;;;36.83;;
14096;SDS011;7125;48.106;11.544;2022-12-15T19:18:05;65.40;;;37.87;;
14096;SDS011;7125;48.106;11.544;2022-12-15T19:20:54;64.40;;;36.23;;
14096;SDS011;7125;48.106;11.544;2022-12-15T19:23:39;67.50;;;39.60;;
14096;SDS011;7125;48.106;11.544;2022-12-15T19:26:06;70.97;;;38.83;;
14096;SDS011;7125;48.106;11.544;2022-12-15T19:28:36;74.03;;;39.10;;
14096;SDS011;7125;48.106;11.544;2022-12-15T19:31:03;72.40;;;40.80;;
14096;SDS011;7125;48.106;11.544;2022-12-15T19:33:32;65.97;;;39.80;;
14096;SDS011;7125;48.106;11.544;2022-12-15T19:36:01;70.93;;;40.97;;
14096;SDS011;7125;48.106;11.544;2022-12-15T19:38:29;73.77;;;40.93;;
14096;SDS011;7125;48.106;11.544;2022-12-15T19:40:58;73.23;;;39.67;;
14096;SDS011;7125;48.106;11.544;2022-12-15T19:43:25;69.30;;;37.67;;